createdAt,value
2018-01-27T00:01:05.636Z,57.37
2018-01-27T00:03:34.185Z,57.00
2018-01-27T00:06:02.027Z,55.50
2018-01-27T00:08:29.841Z,55.47
2018-01-27T00:10:57.624Z,56.10
2018-01-27T00:13:25.364Z,57.80
2018-01-27T00:15:53.214Z,54.47
2018-01-27T00:18:20.982Z,54.37
2018-01-27T00:20:48.872Z,57.13
2018-01-27T00:23:16.625Z,55.13
2018-01-27T00:25:44.350Z,54.80
2018-01-27T00:28:12.154Z,58.03
2018-01-27T00:30:39.956Z,57.67
2018-01-27T00:33:07.690Z,54.60
2018-01-27T00:35:35.810Z,57.67
2018-01-27T00:38:03.545Z,54.43
2018-01-27T00:40:31.313Z,54.70
2018-01-27T00:42:59.081Z,52.87
2018-01-27T00:45:26.979Z,53.53
2018-01-27T00:47:54.758Z,50.77
2018-01-27T00:50:22.521Z,51.17
2018-01-27T00:52:50.320Z,45.50
2018-01-27T00:55:18.139Z,47.33
2018-01-27T00:57:46.673Z,47.63
2018-01-27T01:00:14.458Z,45.17
2018-01-27T01:02:42.268Z,48.97
2018-01-27T01:05:10.208Z,46.00
2018-01-27T01:07:38.021Z,45.70
2018-01-27T01:10:05.854Z,42.80
2018-01-27T01:12:33.614Z,44.93
2018-01-27T01:15:01.400Z,44.70
2018-01-27T01:17:29.215Z,45.80
2018-01-27T01:19:57.025Z,47.13
2018-01-27T01:22:25.620Z,47.90
2018-01-27T01:24:53.366Z,46.20
2018-01-27T01:27:21.338Z,42.27
2018-01-27T01:29:49.069Z,47.50
2018-01-27T01:32:16.819Z,44.80
2018-01-27T01:34:44.783Z,46.37
2018-01-27T01:37:12.557Z,45.17
2018-01-27T01:39:40.341Z,42.90
2018-01-27T01:42:08.191Z,44.33
2018-01-27T01:44:36.083Z,45.13
2018-01-27T01:47:04.034Z,45.37
2018-01-27T01:49:31.853Z,45.50
2018-01-27T01:51:59.735Z,45.40
2018-01-27T01:54:27.581Z,45.33
2018-01-27T01:56:55.399Z,45.77
2018-01-27T01:59:23.255Z,47.60
2018-01-27T02:01:51.042Z,46.20
2018-01-27T02:04:19.025Z,44.57
2018-01-27T02:06:46.802Z,48.00
2018-01-27T02:09:14.590Z,48.37
2018-01-27T02:11:42.344Z,52.80
2018-01-27T02:14:10.184Z,50.13
2018-01-27T02:16:38.289Z,54.73
2018-01-27T02:19:06.162Z,55.07
2018-01-27T02:21:34.764Z,52.70
2018-01-27T02:24:02.614Z,54.87
2018-01-27T02:26:31.011Z,57.33
2018-01-27T02:28:59.578Z,56.00
2018-01-27T02:31:27.378Z,58.50
2018-01-27T02:33:55.240Z,59.87
2018-01-27T02:36:24.045Z,60.67
2018-01-27T02:38:51.879Z,61.47
2018-01-27T02:41:19.685Z,63.07
2018-01-27T02:43:47.445Z,62.57
2018-01-27T02:46:15.243Z,66.67
2018-01-27T02:48:43.100Z,66.20
2018-01-27T02:51:10.983Z,62.83
2018-01-27T02:53:38.790Z,67.20
2018-01-27T02:56:06.570Z,75.33
2018-01-27T02:58:34.341Z,76.43
2018-01-27T03:01:02.118Z,83.90
2018-01-27T03:03:29.890Z,87.40
2018-01-27T03:05:57.704Z,86.23
2018-01-27T03:08:26.352Z,82.50
2018-01-27T03:10:54.139Z,87.87
2018-01-27T03:13:21.882Z,86.20
2018-01-27T03:15:49.641Z,87.70
2018-01-27T03:18:17.500Z,84.33
2018-01-27T03:20:46.078Z,90.43
2018-01-27T03:23:13.836Z,81.40
2018-01-27T03:25:41.580Z,87.30
2018-01-27T03:28:10.158Z,86.97
2018-01-27T03:30:38.013Z,81.73
2018-01-27T03:33:05.753Z,88.87
2018-01-27T03:35:33.629Z,85.33
2018-01-27T03:38:01.496Z,86.17
2018-01-27T03:40:29.340Z,83.60
2018-01-27T03:42:58.012Z,88.83
2018-01-27T03:45:25.860Z,86.97
2018-01-27T03:47:53.900Z,87.87
2018-01-27T03:50:21.718Z,84.77
2018-01-27T03:52:49.487Z,80.33
2018-01-27T03:55:17.280Z,85.80
2018-01-27T03:57:45.108Z,85.00
2018-01-27T04:00:12.926Z,85.73
2018-01-27T04:02:40.766Z,81.23
2018-01-27T04:05:08.494Z,83.13
2018-01-27T04:07:36.244Z,87.70
2018-01-27T04:10:04.145Z,85.73
2018-01-27T04:12:31.905Z,89.10
2018-01-27T04:14:59.739Z,88.20
2018-01-27T04:17:27.492Z,81.27
2018-01-27T04:19:55.239Z,81.50
2018-01-27T04:22:23.080Z,81.60
2018-01-27T04:24:50.896Z,79.50
2018-01-27T04:27:18.713Z,84.33
2018-01-27T04:29:46.489Z,82.40
2018-01-27T04:32:14.402Z,81.37
2018-01-27T04:34:42.187Z,84.20
2018-01-27T04:37:10.016Z,79.47
2018-01-27T04:39:38.781Z,81.83
2018-01-27T04:42:06.561Z,81.20
2018-01-27T04:44:34.379Z,80.80
2018-01-27T04:47:02.184Z,81.97
2018-01-27T04:49:29.989Z,81.83
2018-01-27T04:51:57.812Z,74.63
2018-01-27T04:54:25.659Z,85.87
2018-01-27T04:56:53.420Z,81.30
2018-01-27T04:59:21.173Z,83.40
2018-01-27T05:01:49.228Z,81.63
2018-01-27T05:04:17.784Z,81.37
2018-01-27T05:06:45.538Z,85.90
2018-01-27T05:09:13.281Z,83.37
2018-01-27T05:11:41.026Z,86.63
2018-01-27T05:14:08.820Z,84.40
2018-01-27T05:16:36.630Z,80.17
2018-01-27T05:19:04.450Z,82.80
2018-01-27T05:21:32.238Z,83.37
2018-01-27T05:24:00.044Z,84.67
2018-01-27T05:26:28.576Z,78.97
2018-01-27T05:28:56.322Z,73.93
2018-01-27T05:31:26.096Z,84.77
2018-01-27T05:33:53.896Z,80.43
2018-01-27T05:36:21.708Z,76.33
2018-01-27T05:38:49.530Z,83.47
2018-01-27T05:41:17.350Z,79.57
2018-01-27T05:43:45.237Z,95.60
2018-01-27T05:46:14.013Z,82.90
2018-01-27T05:48:41.905Z,86.83
2018-01-27T05:51:09.705Z,85.43
2018-01-27T05:53:37.525Z,83.13
2018-01-27T05:56:05.306Z,82.03
2018-01-27T05:58:33.136Z,79.07
2018-01-27T06:01:00.929Z,82.97
2018-01-27T06:03:28.646Z,79.70
2018-01-27T06:05:56.424Z,81.63
2018-01-27T06:08:24.222Z,83.67
2018-01-27T06:10:52.818Z,81.03
2018-01-27T06:13:20.620Z,80.03
2018-01-27T06:15:48.395Z,80.50
2018-01-27T06:18:16.250Z,80.20
2018-01-27T06:20:44.100Z,79.70
2018-01-27T06:23:12.730Z,85.00
2018-01-27T06:25:40.580Z,79.57
2018-01-27T06:28:08.367Z,80.23
2018-01-27T06:30:36.207Z,77.53
2018-01-27T06:33:04.033Z,80.57
2018-01-27T06:35:31.766Z,81.30
2018-01-27T06:37:59.497Z,80.00
2018-01-27T06:40:28.986Z,78.23
2018-01-27T06:42:56.840Z,81.70
2018-01-27T06:45:24.982Z,85.27
2018-01-27T06:47:52.734Z,75.33
2018-01-27T06:50:20.474Z,78.53
2018-01-27T06:52:48.284Z,79.43
2018-01-27T06:55:16.035Z,84.90
2018-01-27T06:57:43.789Z,73.73
2018-01-27T07:00:12.270Z,81.27
2018-01-27T07:02:41.545Z,84.10
2018-01-27T07:05:09.352Z,81.03
2018-01-27T07:07:37.113Z,80.90
2018-01-27T07:10:04.924Z,87.60
2018-01-27T07:12:32.753Z,85.40
2018-01-27T07:15:00.518Z,82.50
2018-01-27T07:17:28.953Z,82.07
2018-01-27T07:19:56.738Z,84.60
2018-01-27T07:22:24.538Z,83.10
2018-01-27T07:24:52.285Z,91.03
2018-01-27T07:27:20.176Z,95.40
2018-01-27T07:29:48.001Z,86.60
2018-01-27T07:32:15.810Z,90.33
2018-01-27T07:34:43.574Z,87.67
2018-01-27T07:37:11.314Z,87.63
2018-01-27T07:39:39.042Z,83.77
2018-01-27T07:42:12.675Z,84.20
2018-01-27T07:44:40.450Z,89.13
2018-01-27T07:47:08.460Z,81.93
2018-01-27T07:49:36.280Z,86.23
2018-01-27T07:52:04.071Z,85.87
2018-01-27T07:54:32.832Z,85.23
2018-01-27T07:57:00.628Z,85.03
2018-01-27T07:59:28.438Z,82.23
2018-01-27T08:01:56.430Z,85.93
2018-01-27T08:04:24.219Z,80.73
2018-01-27T08:06:52.025Z,82.30
2018-01-27T08:11:53.849Z,85.70
2018-01-27T08:14:21.595Z,85.43
2018-01-27T08:16:49.390Z,83.03
2018-01-27T08:19:17.177Z,87.43
2018-01-27T08:21:44.992Z,88.70
2018-01-27T08:24:12.798Z,84.43
2018-01-27T08:26:40.567Z,88.73
2018-01-27T08:29:08.569Z,90.27
2018-01-27T08:31:36.330Z,86.73
2018-01-27T08:34:04.173Z,92.97
2018-01-27T08:36:32.016Z,89.77
2018-01-27T08:38:59.871Z,90.60
2018-01-27T08:41:27.646Z,93.10
2018-01-27T08:43:55.418Z,90.33
2018-01-27T08:46:23.205Z,98.57
2018-01-27T08:48:51.772Z,91.87
2018-01-27T08:51:19.585Z,96.03
2018-01-27T08:53:48.169Z,92.43
2018-01-27T08:56:15.948Z,95.47
2018-01-27T08:58:43.751Z,90.37
2018-01-27T09:01:11.576Z,96.67
2018-01-27T09:03:40.269Z,97.27
2018-01-27T09:06:08.073Z,92.43
2018-01-27T09:08:35.893Z,96.30
2018-01-27T09:11:03.699Z,92.87
2018-01-27T09:13:31.496Z,95.37
2018-01-27T09:15:59.302Z,97.03
2018-01-27T09:18:27.196Z,90.67
2018-01-27T09:20:54.973Z,93.40
2018-01-27T09:23:22.834Z,93.77
2018-01-27T09:25:50.585Z,94.20
2018-01-27T09:28:19.200Z,95.40
2018-01-27T09:30:47.027Z,91.30
2018-01-27T09:33:14.812Z,86.67
2018-01-27T09:35:42.614Z,95.90
2018-01-27T09:38:10.404Z,87.47
2018-01-27T09:40:38.141Z,89.50
2018-01-27T09:43:05.955Z,86.70
2018-01-27T09:45:33.786Z,95.03
2018-01-27T09:48:01.567Z,94.27
2018-01-27T09:50:29.298Z,94.70
2018-01-27T09:52:57.171Z,86.07
2018-01-27T09:55:24.933Z,86.27
2018-01-27T09:57:52.765Z,84.07
2018-01-27T10:00:20.678Z,82.00
2018-01-27T10:02:48.424Z,89.20
2018-01-27T10:05:16.335Z,85.23
2018-01-27T10:07:45.145Z,89.87
2018-01-27T10:10:12.964Z,83.27
2018-01-27T10:12:40.704Z,83.30
2018-01-27T10:15:08.519Z,88.70
2018-01-27T10:17:36.347Z,87.57
2018-01-27T10:20:04.161Z,89.17
2018-01-27T10:22:31.954Z,90.73
2018-01-27T10:24:59.727Z,86.57
2018-01-27T10:27:27.459Z,89.20
2018-01-27T10:29:55.290Z,87.60
2018-01-27T10:32:23.107Z,83.10
2018-01-27T10:34:50.898Z,79.90
2018-01-27T10:37:18.627Z,86.43
2018-01-27T10:39:46.490Z,91.07
2018-01-27T10:42:14.271Z,83.93
2018-01-27T10:44:42.063Z,85.30
2018-01-27T10:47:10.671Z,86.73
2018-01-27T10:49:38.488Z,82.47
2018-01-27T10:52:06.631Z,88.83
2018-01-27T10:54:34.596Z,87.03
2018-01-27T10:57:02.458Z,84.90
2018-01-27T10:59:30.329Z,87.80
2018-01-27T11:01:58.510Z,81.53
2018-01-27T11:04:26.530Z,83.10
2018-01-27T11:06:54.446Z,78.27
2018-01-27T11:09:23.335Z,76.50
2018-01-27T11:11:58.615Z,80.73
2018-01-27T11:14:26.425Z,79.80
2018-01-27T11:16:54.521Z,79.93
2018-01-27T11:19:22.929Z,78.57
2018-01-27T11:21:50.712Z,77.87
2018-01-27T11:24:18.625Z,76.73
2018-01-27T11:29:27.555Z,75.20
2018-01-27T11:31:55.424Z,76.43
2018-01-27T11:34:26.622Z,76.07
2018-01-27T11:36:55.359Z,73.00
2018-01-27T11:39:24.597Z,75.93
2018-01-27T11:41:52.624Z,73.87
2018-01-27T11:44:20.674Z,67.20
2018-01-27T11:46:48.576Z,68.47
2018-01-27T11:49:17.554Z,69.83
2018-01-27T11:51:50.921Z,67.80
2018-01-27T11:54:19.772Z,69.70
2018-01-27T11:57:19.624Z,64.60
2018-01-27T12:00:20.939Z,70.20
2018-01-27T12:03:00.630Z,63.43
2018-01-27T12:06:25.307Z,65.60
2018-01-27T12:13:53.836Z,61.40
2018-01-27T13:44:44.921Z,40.30
2018-01-27T13:47:12.689Z,40.80
2018-01-27T13:49:40.498Z,37.70
2018-01-27T13:52:08.288Z,36.63
2018-01-27T13:54:36.034Z,34.17
2018-01-27T13:57:04.616Z,33.47
2018-01-27T13:59:33.036Z,35.13
2018-01-27T14:02:01.669Z,39.57
2018-01-27T14:04:32.646Z,43.57
2018-01-27T14:07:01.735Z,39.97
2018-01-27T14:09:35.455Z,38.73
2018-01-27T14:12:07.389Z,41.27
2018-01-27T14:14:37.631Z,42.43
2018-01-27T14:17:06.583Z,40.50
2018-01-27T14:22:14.498Z,43.63
2018-01-27T14:24:43.252Z,46.13
2018-01-27T14:27:11.365Z,49.10
2018-01-27T14:29:39.305Z,48.27
2018-01-27T14:32:07.227Z,55.80
2018-01-27T14:34:34.983Z,56.20
2018-01-27T14:37:02.837Z,49.00
2018-01-27T14:39:30.671Z,50.53
2018-01-27T14:41:58.402Z,51.70
2018-01-27T14:44:26.154Z,51.60
2018-01-27T14:46:53.980Z,52.23
2018-01-27T14:49:21.716Z,53.60
2018-01-27T14:51:49.518Z,51.60
2018-01-27T14:54:17.381Z,53.00
2018-01-27T14:56:45.137Z,50.20
2018-01-27T14:59:12.867Z,50.57
2018-01-27T15:01:40.668Z,49.20
2018-01-27T15:04:08.484Z,48.90
2018-01-27T15:06:36.267Z,48.70
2018-01-27T15:09:04.157Z,48.50
2018-01-27T15:11:31.918Z,48.27
2018-01-27T15:13:59.723Z,47.43
2018-01-27T15:16:27.499Z,48.43
2018-01-27T15:18:55.311Z,48.50
2018-01-27T15:21:23.077Z,48.40
2018-01-27T15:23:50.832Z,52.27
2018-01-27T15:26:18.584Z,48.97
2018-01-27T15:28:46.446Z,45.53
2018-01-27T15:31:14.936Z,43.03
2018-01-27T15:33:42.694Z,41.43
2018-01-27T15:36:10.453Z,36.63
2018-01-27T15:38:38.242Z,38.77
2018-01-27T15:41:05.962Z,36.90
2018-01-27T15:43:33.740Z,41.00
2018-01-27T15:46:01.576Z,37.97
2018-01-27T15:48:29.322Z,40.10
2018-01-27T15:50:57.127Z,50.27
2018-01-27T15:53:24.859Z,48.50
2018-01-27T15:55:52.642Z,48.40
2018-01-27T15:58:21.310Z,48.27
2018-01-27T16:00:49.141Z,49.93
2018-01-27T16:03:17.714Z,49.87
2018-01-27T16:05:45.511Z,48.30
2018-01-27T16:08:13.261Z,51.10
2018-01-27T16:10:41.018Z,47.80
2018-01-27T16:13:09.065Z,49.87
2018-01-27T16:15:36.806Z,46.07
2018-01-27T16:18:04.557Z,47.37
2018-01-27T16:20:32.347Z,48.47
2018-01-27T16:23:00.167Z,48.83
2018-01-27T16:25:27.918Z,46.93
2018-01-27T16:27:55.700Z,46.80
2018-01-27T16:30:23.441Z,48.43
2018-01-27T16:32:51.218Z,47.87
2018-01-27T16:35:19.024Z,45.40
2018-01-27T16:37:46.914Z,49.43
2018-01-27T16:40:14.712Z,50.00
2018-01-27T16:42:42.517Z,46.30
2018-01-27T16:45:11.057Z,48.23
2018-01-27T16:47:40.532Z,47.40
2018-01-27T16:50:09.157Z,46.17
2018-01-27T16:56:03.650Z,46.37
2018-01-27T16:58:31.542Z,45.43
2018-01-27T17:00:59.407Z,45.50
2018-01-27T17:03:27.236Z,44.60
2018-01-27T17:05:55.067Z,45.33
2018-01-27T17:08:22.838Z,44.97
2018-01-27T17:10:50.635Z,46.20
2018-01-27T17:13:18.400Z,44.10
2018-01-27T17:15:47.370Z,43.53
2018-01-27T17:18:15.206Z,45.37
2018-01-27T17:20:43.005Z,40.53
2018-01-27T17:23:10.830Z,68.20
2018-01-27T17:25:38.631Z,41.73
2018-01-27T17:28:06.510Z,45.40
2018-01-27T17:30:35.016Z,44.70
2018-01-27T17:33:02.783Z,44.83
2018-01-27T17:35:30.549Z,43.57
2018-01-27T17:37:58.363Z,42.83
2018-01-27T17:40:26.125Z,47.47
2018-01-27T17:42:53.936Z,45.13
2018-01-27T17:45:23.058Z,42.77
2018-01-27T17:47:50.865Z,43.97
2018-01-27T17:50:18.701Z,47.03
2018-01-27T17:52:46.679Z,44.80
2018-01-27T17:55:14.433Z,44.27
2018-01-27T17:57:42.238Z,44.53
2018-01-27T18:00:10.011Z,40.47
2018-01-27T18:02:37.827Z,41.23
2018-01-27T18:05:05.566Z,41.80
2018-01-27T18:07:33.394Z,40.20
2018-01-27T18:10:01.190Z,44.00
2018-01-27T18:12:28.954Z,37.83
2018-01-27T18:14:56.778Z,39.07
2018-01-27T18:17:24.559Z,40.20
2018-01-27T18:19:52.278Z,38.77
2018-01-27T18:22:20.800Z,40.43
2018-01-27T18:24:48.774Z,38.27
2018-01-27T18:27:16.554Z,37.10
2018-01-27T18:29:45.305Z,39.43
2018-01-27T18:32:14.090Z,38.20
2018-01-27T18:34:41.999Z,39.00
2018-01-27T18:37:09.813Z,36.30
2018-01-27T18:39:37.698Z,35.40
2018-01-27T18:42:05.476Z,34.90
2018-01-27T18:44:33.235Z,35.70
2018-01-27T18:47:01.096Z,35.60
2018-01-27T18:49:29.678Z,36.30
2018-01-27T18:51:57.494Z,40.63
2018-01-27T18:54:25.313Z,38.50
2018-01-27T18:56:53.863Z,40.40
2018-01-27T18:59:21.660Z,39.00
2018-01-27T19:01:49.491Z,42.80
2018-01-27T19:04:17.257Z,39.30
2018-01-27T19:06:45.109Z,39.27
2018-01-27T19:09:12.858Z,38.77
2018-01-27T19:11:40.630Z,39.00
2018-01-27T19:14:08.428Z,41.37
2018-01-27T19:16:36.169Z,39.00
2018-01-27T19:19:04.122Z,40.03
2018-01-27T19:21:32.256Z,42.53
2018-01-27T19:24:00.092Z,40.50
2018-01-27T19:26:27.934Z,41.20
2018-01-27T19:28:55.955Z,41.10
2018-01-27T19:31:23.753Z,49.23
2018-01-27T19:33:52.384Z,48.20
2018-01-27T19:36:20.201Z,47.70
2018-01-27T19:38:48.051Z,39.47
2018-01-27T19:41:15.947Z,39.67
2018-01-27T19:43:43.818Z,43.27
2018-01-27T19:46:13.550Z,40.33
2018-01-27T19:48:41.661Z,43.27
2018-01-27T19:51:10.820Z,42.13
2018-01-27T19:53:38.706Z,45.60
2018-01-27T19:56:07.107Z,42.00
2018-01-27T19:58:35.514Z,41.07
2018-01-27T20:01:05.777Z,44.30
2018-01-27T20:03:33.633Z,43.20
2018-01-27T20:06:01.514Z,42.40
2018-01-27T20:08:31.187Z,46.53
2018-01-27T20:10:59.700Z,44.50
2018-01-27T20:13:29.175Z,45.23
2018-01-27T20:15:58.049Z,42.60
2018-01-27T20:18:27.412Z,42.87
2018-01-27T20:20:57.065Z,44.83
2018-01-27T20:23:26.525Z,44.57
2018-01-27T20:25:55.159Z,43.20
2018-01-27T20:28:24.604Z,45.67
2018-01-27T20:30:54.593Z,43.60
2018-01-27T20:33:24.390Z,44.03
2018-01-27T20:35:52.710Z,41.47
2018-01-27T20:38:22.291Z,43.20
2018-01-27T20:40:51.027Z,43.53
2018-01-27T20:43:18.926Z,43.20
2018-01-27T20:45:48.378Z,42.43
2018-01-27T20:48:17.464Z,43.73
2018-01-27T20:50:45.643Z,44.57
2018-01-27T20:53:13.511Z,41.70
2018-01-27T20:55:42.131Z,43.70
2018-01-27T20:58:11.238Z,43.27
2018-01-27T21:00:39.054Z,44.97
2018-01-27T21:03:07.788Z,43.97
2018-01-27T21:05:38.542Z,42.93
2018-01-27T21:08:07.622Z,47.07
2018-01-27T21:10:37.615Z,44.90
2018-01-27T21:13:05.503Z,44.00
2018-01-27T21:15:34.266Z,44.00
2018-01-27T21:18:02.584Z,44.90
2018-01-27T21:20:30.822Z,45.03
2018-01-27T21:22:59.379Z,45.10
2018-01-27T21:25:27.973Z,43.17
2018-01-27T21:27:55.779Z,45.80
2018-01-27T21:30:24.191Z,45.77
2018-01-27T21:32:52.657Z,44.90
2018-01-27T21:35:21.516Z,46.90
2018-01-27T21:37:50.699Z,45.43
2018-01-27T21:40:18.677Z,46.77
2018-01-27T21:42:46.872Z,46.17
2018-01-27T21:45:14.651Z,44.50
2018-01-27T21:47:42.765Z,45.67
2018-01-27T21:50:10.530Z,45.43
2018-01-27T21:52:38.272Z,45.70
2018-01-27T21:55:06.818Z,44.10
2018-01-27T21:57:34.666Z,45.97
2018-01-27T22:00:03.730Z,46.17
2018-01-27T22:02:31.769Z,45.87
2018-01-27T22:04:59.681Z,46.17
2018-01-27T22:07:27.556Z,44.87
2018-01-27T22:09:55.526Z,45.10
2018-01-27T22:12:26.656Z,44.40
2018-01-27T22:15:03.818Z,42.00
2018-01-27T22:17:36.675Z,44.00
2018-01-27T22:20:05.424Z,44.87
2018-01-27T22:22:33.565Z,47.50
2018-01-27T22:25:02.132Z,46.63
2018-01-27T22:27:30.046Z,44.77
2018-01-27T22:32:42.424Z,43.40
2018-01-27T22:35:10.305Z,45.90
2018-01-27T22:37:38.214Z,45.13
2018-01-27T22:40:07.504Z,43.30
2018-01-27T22:42:35.461Z,42.40
2018-01-27T22:45:03.313Z,44.13
2018-01-27T22:47:31.130Z,40.73
2018-01-27T22:49:59.734Z,39.50
2018-01-27T22:52:27.551Z,43.13
2018-01-27T22:54:55.367Z,41.40
2018-01-27T22:57:23.483Z,40.10
2018-01-27T22:59:51.293Z,41.20
2018-01-27T23:02:19.902Z,37.73
2018-01-27T23:04:47.772Z,39.73
2018-01-27T23:07:15.682Z,39.00
2018-01-27T23:09:43.481Z,41.07
2018-01-27T23:12:12.118Z,39.63
2018-01-27T23:14:40.790Z,41.17
2018-01-27T23:17:08.596Z,39.53
2018-01-27T23:19:36.411Z,41.17
2018-01-27T23:22:04.262Z,40.00
2018-01-27T23:24:32.755Z,42.27
2018-01-27T23:27:00.532Z,38.50
2018-01-27T23:29:28.277Z,39.97
2018-01-27T23:31:56.083Z,40.60
2018-01-27T23:34:23.945Z,41.47
2018-01-27T23:36:51.677Z,39.20
2018-01-27T23:39:20.198Z,40.53
2018-01-27T23:41:47.969Z,40.23
2018-01-27T23:44:16.508Z,36.80
2018-01-27T23:46:46.217Z,37.50
2018-01-27T23:49:14.062Z,41.37
2018-01-27T23:51:41.792Z,39.90
2018-01-27T23:54:09.790Z,38.63
2018-01-27T23:56:37.634Z,40.17
2018-01-27T23:59:05.448Z,40.43
